sensor_id;sensor_type;location;lat;lon;timestamp;P1;durP1;ratioP1;P2;durP2;ratioP2
12986;SDS011;58897;51.960;5.582;2022-09-25T00:00:47;6.50;;;2.13;;
12986;SDS011;58897;51.960;5.582;2022-09-25T00:03:16;3.37;;;1.77;;
12986;SDS011;58897;51.960;5.582;2022-09-25T00:05:43;2.30;;;2.00;;
12986;SDS011;58897;51.960;5.582;2022-09-25T00:08:11;6.90;;;2.10;;
12986;SDS011;58897;51.960;5.582;2022-09-25T00:10:40;2.70;;;1.93;;
12986;SDS011;58897;51.960;5.582;2022-09-25T00:13:07;2.00;;;1.80;;
12986;SDS011;58897;51.960;5.582;2022-09-25T00:15:33;5.33;;;1.83;;
12986;SDS011;58897;51.960;5.582;2022-09-25T00:18:00;3.40;;;2.07;;
12986;SDS011;58897;51.960;5.582;2022-09-25T00:20:27;4.23;;;2.37;;
12986;SDS011;58897;51.960;5.582;2022-09-25T00:22:53;2.40;;;2.03;;
12986;SDS011;58897;51.960;5.582;2022-09-25T00:25:20;4.43;;;2.27;;
12986;SDS011;58897;51.960;5.582;2022-09-25T00:27:46;2.90;;;2.00;;
12986;SDS011;58897;51.960;5.582;2022-09-25T00:30:15;4.90;;;2.30;;
12986;SDS011;58897;51.960;5.582;2022-09-25T00:32:41;4.67;;;1.93;;
12986;SDS011;58897;51.960;5.582;2022-09-25T00:35:08;1.97;;;1.80;;
12986;SDS011;58897;51.960;5.582;2022-09-25T00:37:35;3.83;;;1.73;;
12986;SDS011;58897;51.960;5.582;2022-09-25T00:40:02;5.43;;;2.40;;
12986;SDS011;58897;51.960;5.582;2022-09-25T00:42:30;6.03;;;2.27;;
12986;SDS011;58897;51.960;5.582;2022-09-25T00:45:02;3.30;;;2.00;;
12986;SDS011;58897;51.960;5.582;2022-09-25T00:50:18;3.43;;;2.23;;
12986;SDS011;58897;51.960;5.582;2022-09-25T00:52:48;3.23;;;2.30;;
12986;SDS011;58897;51.960;5.582;2022-09-25T00:55:16;5.63;;;2.27;;
12986;SDS011;58897;51.960;5.582;2022-09-25T00:57:45;2.17;;;1.93;;
12986;SDS011;58897;51.960;5.582;2022-09-25T01:00:13;2.73;;;1.87;;
12986;SDS011;58897;51.960;5.582;2022-09-25T01:02:44;3.10;;;2.13;;
12986;SDS011;58897;51.960;5.582;2022-09-25T01:05:20;3.83;;;2.30;;
12986;SDS011;58897;51.960;5.582;2022-09-25T01:07:49;2.60;;;1.90;;
12986;SDS011;58897;51.960;5.582;2022-09-25T01:10:18;3.13;;;2.10;;
12986;SDS011;58897;51.960;5.582;2022-09-25T01:12:46;3.47;;;1.90;;
12986;SDS011;58897;51.960;5.582;2022-09-25T01:15:15;3.07;;;1.80;;
12986;SDS011;58897;51.960;5.582;2022-09-25T01:17:59;3.10;;;2.00;;
12986;SDS011;58897;51.960;5.582;2022-09-25T01:23:29;5.00;;;2.00;;
12986;SDS011;58897;51.960;5.582;2022-09-25T01:31:07;2.43;;;2.13;;
12986;SDS011;58897;51.960;5.582;2022-09-25T01:33:44;3.13;;;1.53;;
12986;SDS011;58897;51.960;5.582;2022-09-25T01:38:46;4.53;;;1.90;;
12986;SDS011;58897;51.960;5.582;2022-09-25T01:41:28;5.03;;;1.97;;
12986;SDS011;58897;51.960;5.582;2022-09-25T01:46:50;4.57;;;1.80;;
12986;SDS011;58897;51.960;5.582;2022-09-25T01:49:21;4.63;;;2.47;;
12986;SDS011;58897;51.960;5.582;2022-09-25T01:51:58;3.47;;;2.07;;
12986;SDS011;58897;51.960;5.582;2022-09-25T01:54:36;3.50;;;1.90;;
12986;SDS011;58897;51.960;5.582;2022-09-25T01:57:08;5.30;;;1.97;;
12986;SDS011;58897;51.960;5.582;2022-09-25T01:59:42;2.63;;;1.87;;
12986;SDS011;58897;51.960;5.582;2022-09-25T02:02:15;7.60;;;2.07;;
12986;SDS011;58897;51.960;5.582;2022-09-25T02:04:53;4.43;;;2.13;;
12986;SDS011;58897;51.960;5.582;2022-09-25T02:07:27;2.77;;;1.90;;
12986;SDS011;58897;51.960;5.582;2022-09-25T02:10:02;2.93;;;1.90;;
12986;SDS011;58897;51.960;5.582;2022-09-25T02:12:35;2.80;;;2.30;;
12986;SDS011;58897;51.960;5.582;2022-09-25T02:15:13;3.70;;;2.13;;
12986;SDS011;58897;51.960;5.582;2022-09-25T02:17:46;3.97;;;2.00;;
12986;SDS011;58897;51.960;5.582;2022-09-25T02:20:37;2.87;;;2.23;;
12986;SDS011;58897;51.960;5.582;2022-09-25T02:23:09;6.30;;;2.30;;
12986;SDS011;58897;51.960;5.582;2022-09-25T02:25:42;3.10;;;2.00;;
12986;SDS011;58897;51.960;5.582;2022-09-25T02:28:13;3.33;;;2.17;;
12986;SDS011;58897;51.960;5.582;2022-09-25T02:30:39;6.67;;;2.10;;
12986;SDS011;58897;51.960;5.582;2022-09-25T02:33:06;5.03;;;2.30;;
12986;SDS011;58897;51.960;5.582;2022-09-25T02:35:32;3.37;;;2.57;;
12986;SDS011;58897;51.960;5.582;2022-09-25T02:37:59;2.23;;;1.87;;
12986;SDS011;58897;51.960;5.582;2022-09-25T02:40:32;4.63;;;2.60;;
12986;SDS011;58897;51.960;5.582;2022-09-25T02:45:46;3.47;;;2.07;;
12986;SDS011;58897;51.960;5.582;2022-09-25T02:50:55;4.63;;;2.17;;
12986;SDS011;58897;51.960;5.582;2022-09-25T02:56:19;4.00;;;1.93;;
12986;SDS011;58897;51.960;5.582;2022-09-25T02:59:08;2.63;;;2.20;;
12986;SDS011;58897;51.960;5.582;2022-09-25T03:01:42;4.97;;;2.03;;
12986;SDS011;58897;51.960;5.582;2022-09-25T03:04:12;2.80;;;1.93;;
12986;SDS011;58897;51.960;5.582;2022-09-25T03:06:41;2.23;;;1.83;;
12986;SDS011;58897;51.960;5.582;2022-09-25T03:09:09;3.33;;;1.83;;
12986;SDS011;58897;51.960;5.582;2022-09-25T03:11:37;4.50;;;2.10;;
12986;SDS011;58897;51.960;5.582;2022-09-25T03:14:07;3.10;;;2.30;;
12986;SDS011;58897;51.960;5.582;2022-09-25T03:16:39;2.97;;;2.37;;
12986;SDS011;58897;51.960;5.582;2022-09-25T03:19:12;4.73;;;2.43;;
12986;SDS011;58897;51.960;5.582;2022-09-25T03:21:39;3.53;;;1.83;;
12986;SDS011;58897;51.960;5.582;2022-09-25T03:24:05;2.20;;;2.00;;
12986;SDS011;58897;51.960;5.582;2022-09-25T03:26:32;2.40;;;2.20;;
12986;SDS011;58897;51.960;5.582;2022-09-25T03:28:59;2.63;;;1.90;;
12986;SDS011;58897;51.960;5.582;2022-09-25T03:31:27;2.83;;;2.10;;
12986;SDS011;58897;51.960;5.582;2022-09-25T03:33:55;2.93;;;2.07;;
12986;SDS011;58897;51.960;5.582;2022-09-25T03:36:22;2.43;;;2.00;;
12986;SDS011;58897;51.960;5.582;2022-09-25T03:38:51;3.53;;;1.97;;
12986;SDS011;58897;51.960;5.582;2022-09-25T03:41:23;4.10;;;2.20;;
12986;SDS011;58897;51.960;5.582;2022-09-25T03:43:51;2.97;;;1.60;;
12986;SDS011;58897;51.960;5.582;2022-09-25T03:46:20;4.90;;;2.00;;
12986;SDS011;58897;51.960;5.582;2022-09-25T03:48:52;4.23;;;2.20;;
12986;SDS011;58897;51.960;5.582;2022-09-25T03:51:20;2.40;;;2.20;;
12986;SDS011;58897;51.960;5.582;2022-09-25T03:53:48;3.40;;;1.80;;
12986;SDS011;58897;51.960;5.582;2022-09-25T03:56:16;3.00;;;1.90;;
12986;SDS011;58897;51.960;5.582;2022-09-25T03:58:46;3.53;;;1.70;;
12986;SDS011;58897;51.960;5.582;2022-09-25T04:01:13;1.87;;;1.57;;
12986;SDS011;58897;51.960;5.582;2022-09-25T04:03:41;4.27;;;1.90;;
12986;SDS011;58897;51.960;5.582;2022-09-25T04:06:13;3.30;;;1.90;;
12986;SDS011;58897;51.960;5.582;2022-09-25T04:08:44;2.80;;;1.97;;
12986;SDS011;58897;51.960;5.582;2022-09-25T04:11:13;1.80;;;1.40;;
12986;SDS011;58897;51.960;5.582;2022-09-25T04:13:40;1.80;;;1.40;;
12986;SDS011;58897;51.960;5.582;2022-09-25T04:16:08;2.37;;;1.60;;
12986;SDS011;58897;51.960;5.582;2022-09-25T04:18:35;3.10;;;1.60;;
12986;SDS011;58897;51.960;5.582;2022-09-25T04:21:04;2.17;;;1.50;;
12986;SDS011;58897;51.960;5.582;2022-09-25T04:23:33;2.30;;;1.67;;
12986;SDS011;58897;51.960;5.582;2022-09-25T04:26:00;1.83;;;1.57;;
12986;SDS011;58897;51.960;5.582;2022-09-25T04:28:26;3.00;;;1.43;;
12986;SDS011;58897;51.960;5.582;2022-09-25T04:30:55;1.37;;;1.23;;
12986;SDS011;58897;51.960;5.582;2022-09-25T04:33:21;3.37;;;1.80;;
12986;SDS011;58897;51.960;5.582;2022-09-25T04:36:06;2.00;;;1.50;;
12986;SDS011;58897;51.960;5.582;2022-09-25T04:38:33;5.10;;;1.93;;
12986;SDS011;58897;51.960;5.582;2022-09-25T04:40:59;2.60;;;1.63;;
12986;SDS011;58897;51.960;5.582;2022-09-25T04:43:27;2.97;;;1.57;;
12986;SDS011;58897;51.960;5.582;2022-09-25T04:45:54;1.73;;;1.40;;
12986;SDS011;58897;51.960;5.582;2022-09-25T04:48:26;1.67;;;1.43;;
12986;SDS011;58897;51.960;5.582;2022-09-25T04:50:52;1.60;;;1.30;;
12986;SDS011;58897;51.960;5.582;2022-09-25T04:53:19;1.97;;;1.30;;
12986;SDS011;58897;51.960;5.582;2022-09-25T04:55:45;3.23;;;1.30;;
12986;SDS011;58897;51.960;5.582;2022-09-25T04:58:13;1.90;;;1.30;;
12986;SDS011;58897;51.960;5.582;2022-09-25T05:00:39;3.70;;;1.40;;
12986;SDS011;58897;51.960;5.582;2022-09-25T05:03:07;2.27;;;1.63;;
12986;SDS011;58897;51.960;5.582;2022-09-25T05:05:33;5.07;;;1.40;;
12986;SDS011;58897;51.960;5.582;2022-09-25T05:08:00;1.80;;;1.23;;
12986;SDS011;58897;51.960;5.582;2022-09-25T05:10:29;5.37;;;1.50;;
12986;SDS011;58897;51.960;5.582;2022-09-25T05:12:57;3.03;;;1.30;;
12986;SDS011;58897;51.960;5.582;2022-09-25T05:15:26;1.67;;;1.37;;
12986;SDS011;58897;51.960;5.582;2022-09-25T05:18:01;1.77;;;1.17;;
12986;SDS011;58897;51.960;5.582;2022-09-25T05:20:30;2.43;;;1.40;;
12986;SDS011;58897;51.960;5.582;2022-09-25T05:22:57;3.47;;;1.20;;
12986;SDS011;58897;51.960;5.582;2022-09-25T05:25:24;3.17;;;1.30;;
12986;SDS011;58897;51.960;5.582;2022-09-25T05:27:52;1.73;;;1.23;;
12986;SDS011;58897;51.960;5.582;2022-09-25T05:30:21;2.97;;;1.40;;
12986;SDS011;58897;51.960;5.582;2022-09-25T05:32:48;1.90;;;1.10;;
12986;SDS011;58897;51.960;5.582;2022-09-25T05:35:19;1.03;;;0.93;;
12986;SDS011;58897;51.960;5.582;2022-09-25T05:37:47;2.50;;;1.20;;
12986;SDS011;58897;51.960;5.582;2022-09-25T05:40:13;2.07;;;1.17;;
12986;SDS011;58897;51.960;5.582;2022-09-25T05:42:41;1.67;;;1.00;;
12986;SDS011;58897;51.960;5.582;2022-09-25T05:45:12;2.30;;;0.97;;
12986;SDS011;58897;51.960;5.582;2022-09-25T05:47:40;2.23;;;1.27;;
12986;SDS011;58897;51.960;5.582;2022-09-25T05:50:07;0.90;;;0.90;;
12986;SDS011;58897;51.960;5.582;2022-09-25T05:52:35;4.73;;;0.90;;
12986;SDS011;58897;51.960;5.582;2022-09-25T05:55:02;3.50;;;1.30;;
12986;SDS011;58897;51.960;5.582;2022-09-25T05:57:31;1.77;;;1.20;;
12986;SDS011;58897;51.960;5.582;2022-09-25T05:59:59;3.27;;;1.10;;
12986;SDS011;58897;51.960;5.582;2022-09-25T06:02:26;3.00;;;1.57;;
12986;SDS011;58897;51.960;5.582;2022-09-25T06:04:53;1.80;;;0.80;;
12986;SDS011;58897;51.960;5.582;2022-09-25T06:07:19;1.80;;;1.27;;
12986;SDS011;58897;51.960;5.582;2022-09-25T06:09:46;2.73;;;1.10;;
12986;SDS011;58897;51.960;5.582;2022-09-25T06:12:13;2.67;;;1.13;;
12986;SDS011;58897;51.960;5.582;2022-09-25T06:14:39;2.47;;;1.33;;
12986;SDS011;58897;51.960;5.582;2022-09-25T06:17:06;1.80;;;1.30;;
12986;SDS011;58897;51.960;5.582;2022-09-25T06:19:33;1.20;;;1.10;;
12986;SDS011;58897;51.960;5.582;2022-09-25T06:22:00;2.83;;;1.07;;
12986;SDS011;58897;51.960;5.582;2022-09-25T06:24:26;1.73;;;1.40;;
12986;SDS011;58897;51.960;5.582;2022-09-25T06:26:53;1.97;;;1.20;;
12986;SDS011;58897;51.960;5.582;2022-09-25T06:29:19;1.93;;;1.43;;
12986;SDS011;58897;51.960;5.582;2022-09-25T06:31:46;1.67;;;1.20;;
12986;SDS011;58897;51.960;5.582;2022-09-25T06:34:12;4.13;;;1.13;;
12986;SDS011;58897;51.960;5.582;2022-09-25T06:36:39;2.30;;;1.40;;
12986;SDS011;58897;51.960;5.582;2022-09-25T06:39:05;2.70;;;1.50;;
12986;SDS011;58897;51.960;5.582;2022-09-25T06:41:31;1.83;;;1.40;;
12986;SDS011;58897;51.960;5.582;2022-09-25T06:44:01;2.50;;;1.20;;
12986;SDS011;58897;51.960;5.582;2022-09-25T06:46:28;2.03;;;1.50;;
12986;SDS011;58897;51.960;5.582;2022-09-25T06:48:55;1.93;;;1.27;;
12986;SDS011;58897;51.960;5.582;2022-09-25T06:51:25;3.27;;;1.23;;
12986;SDS011;58897;51.960;5.582;2022-09-25T06:53:56;4.17;;;1.30;;
12986;SDS011;58897;51.960;5.582;2022-09-25T06:56:23;2.43;;;1.77;;
12986;SDS011;58897;51.960;5.582;2022-09-25T06:58:50;1.73;;;1.20;;
12986;SDS011;58897;51.960;5.582;2022-09-25T07:01:17;2.47;;;1.50;;
12986;SDS011;58897;51.960;5.582;2022-09-25T07:03:44;2.90;;;1.60;;
12986;SDS011;58897;51.960;5.582;2022-09-25T07:06:11;1.83;;;1.47;;
12986;SDS011;58897;51.960;5.582;2022-09-25T07:08:46;3.10;;;1.47;;
12986;SDS011;58897;51.960;5.582;2022-09-25T07:11:14;3.63;;;1.10;;
12986;SDS011;58897;51.960;5.582;2022-09-25T07:13:45;3.03;;;1.53;;
12986;SDS011;58897;51.960;5.582;2022-09-25T07:16:16;1.80;;;1.43;;
12986;SDS011;58897;51.960;5.582;2022-09-25T07:18:44;2.23;;;1.23;;
12986;SDS011;58897;51.960;5.582;2022-09-25T07:21:18;1.77;;;1.20;;
12986;SDS011;58897;51.960;5.582;2022-09-25T07:23:46;1.83;;;1.10;;
12986;SDS011;58897;51.960;5.582;2022-09-25T07:26:15;2.50;;;2.00;;
12986;SDS011;58897;51.960;5.582;2022-09-25T07:31:22;2.93;;;1.60;;
12986;SDS011;58897;51.960;5.582;2022-09-25T07:33:51;2.43;;;1.20;;
12986;SDS011;58897;51.960;5.582;2022-09-25T07:36:18;3.10;;;1.90;;
12986;SDS011;58897;51.960;5.582;2022-09-25T07:38:48;4.07;;;1.93;;
12986;SDS011;58897;51.960;5.582;2022-09-25T07:41:16;2.80;;;1.77;;
12986;SDS011;58897;51.960;5.582;2022-09-25T07:43:43;4.77;;;2.00;;
12986;SDS011;58897;51.960;5.582;2022-09-25T07:46:10;2.60;;;1.90;;
12986;SDS011;58897;51.960;5.582;2022-09-25T07:48:37;6.03;;;3.27;;
12986;SDS011;58897;51.960;5.582;2022-09-25T07:51:06;7.60;;;5.13;;
12986;SDS011;58897;51.960;5.582;2022-09-25T07:53:35;9.73;;;5.27;;
12986;SDS011;58897;51.960;5.582;2022-09-25T07:56:03;8.57;;;3.83;;
12986;SDS011;58897;51.960;5.582;2022-09-25T07:58:32;4.23;;;2.93;;
12986;SDS011;58897;51.960;5.582;2022-09-25T08:01:00;8.33;;;5.07;;
12986;SDS011;58897;51.960;5.582;2022-09-25T08:03:29;7.67;;;4.40;;
12986;SDS011;58897;51.960;5.582;2022-09-25T08:06:00;6.43;;;3.83;;
12986;SDS011;58897;51.960;5.582;2022-09-25T08:08:28;8.77;;;4.20;;
12986;SDS011;58897;51.960;5.582;2022-09-25T08:11:02;6.13;;;3.00;;
12986;SDS011;58897;51.960;5.582;2022-09-25T08:13:32;6.13;;;4.00;;
12986;SDS011;58897;51.960;5.582;2022-09-25T08:16:02;7.43;;;4.33;;
12986;SDS011;58897;51.960;5.582;2022-09-25T08:18:29;6.30;;;3.80;;
12986;SDS011;58897;51.960;5.582;2022-09-25T08:21:00;4.07;;;2.40;;
12986;SDS011;58897;51.960;5.582;2022-09-25T08:23:27;5.63;;;3.20;;
12986;SDS011;58897;51.960;5.582;2022-09-25T08:25:54;7.43;;;2.57;;
12986;SDS011;58897;51.960;5.582;2022-09-25T08:28:21;5.60;;;3.77;;
12986;SDS011;58897;51.960;5.582;2022-09-25T08:30:48;6.70;;;3.90;;
12986;SDS011;58897;51.960;5.582;2022-09-25T08:33:15;6.53;;;2.57;;
12986;SDS011;58897;51.960;5.582;2022-09-25T08:35:42;7.30;;;2.70;;
12986;SDS011;58897;51.960;5.582;2022-09-25T08:38:09;9.43;;;2.80;;
12986;SDS011;58897;51.960;5.582;2022-09-25T08:40:38;6.50;;;1.70;;
12986;SDS011;58897;51.960;5.582;2022-09-25T08:43:17;3.33;;;1.50;;
12986;SDS011;58897;51.960;5.582;2022-09-25T08:45:48;1.30;;;1.17;;
12986;SDS011;58897;51.960;5.582;2022-09-25T08:48:36;1.73;;;1.10;;
12986;SDS011;58897;51.960;5.582;2022-09-25T08:51:38;2.77;;;1.10;;
12986;SDS011;58897;51.960;5.582;2022-09-25T08:54:17;6.50;;;1.03;;
12986;SDS011;58897;51.960;5.582;2022-09-25T08:56:48;3.23;;;0.93;;
12986;SDS011;58897;51.960;5.582;2022-09-25T09:02:11;1.43;;;0.63;;
12986;SDS011;58897;51.960;5.582;2022-09-25T09:04:42;1.90;;;1.00;;
12986;SDS011;58897;51.960;5.582;2022-09-25T09:07:15;6.03;;;3.00;;
12986;SDS011;58897;51.960;5.582;2022-09-25T09:09:54;5.03;;;1.87;;
12986;SDS011;58897;51.960;5.582;2022-09-25T09:12:33;1.73;;;1.40;;
12986;SDS011;58897;51.960;5.582;2022-09-25T09:18:04;1.40;;;1.00;;
12986;SDS011;58897;51.960;5.582;2022-09-25T09:20:45;5.13;;;1.20;;
12986;SDS011;58897;51.960;5.582;2022-09-25T09:23:17;1.63;;;1.00;;
12986;SDS011;58897;51.960;5.582;2022-09-25T09:25:49;2.93;;;1.00;;
12986;SDS011;58897;51.960;5.582;2022-09-25T09:28:45;1.30;;;0.67;;
12986;SDS011;58897;51.960;5.582;2022-09-25T09:49:18;2.13;;;1.30;;
12986;SDS011;58897;51.960;5.582;2022-09-25T09:52:09;3.10;;;1.83;;
12986;SDS011;58897;51.960;5.582;2022-09-25T09:57:24;3.03;;;1.10;;
12986;SDS011;58897;51.960;5.582;2022-09-25T09:59:55;2.60;;;1.17;;
12986;SDS011;58897;51.960;5.582;2022-09-25T10:02:43;2.17;;;0.90;;
12986;SDS011;58897;51.960;5.582;2022-09-25T10:05:16;1.73;;;1.00;;
12986;SDS011;58897;51.960;5.582;2022-09-25T10:07:48;0.43;;;0.40;;
12986;SDS011;58897;51.960;5.582;2022-09-25T10:10:16;1.17;;;0.90;;
12986;SDS011;58897;51.960;5.582;2022-09-25T10:12:45;1.57;;;0.70;;
12986;SDS011;58897;51.960;5.582;2022-09-25T10:15:25;1.33;;;0.60;;
12986;SDS011;58897;51.960;5.582;2022-09-25T10:18:00;1.60;;;0.80;;
12986;SDS011;58897;51.960;5.582;2022-09-25T10:20:32;0.93;;;0.60;;
12986;SDS011;58897;51.960;5.582;2022-09-25T10:23:10;1.10;;;0.70;;
12986;SDS011;58897;51.960;5.582;2022-09-25T10:26:01;1.97;;;0.50;;
12986;SDS011;58897;51.960;5.582;2022-09-25T10:31:01;1.43;;;0.53;;
12986;SDS011;58897;51.960;5.582;2022-09-25T10:33:31;0.60;;;0.60;;
12986;SDS011;58897;51.960;5.582;2022-09-25T10:35:58;1.63;;;0.70;;
12986;SDS011;58897;51.960;5.582;2022-09-25T10:41:18;0.60;;;0.60;;
12986;SDS011;58897;51.960;5.582;2022-09-25T10:46:31;1.13;;;1.07;;
12986;SDS011;58897;51.960;5.582;2022-09-25T10:49:24;2.70;;;2.03;;
12986;SDS011;58897;51.960;5.582;2022-09-25T10:52:12;2.60;;;1.60;;
12986;SDS011;58897;51.960;5.582;2022-09-25T10:54:40;1.33;;;1.00;;
12986;SDS011;58897;51.960;5.582;2022-09-25T10:59:59;1.23;;;0.50;;
12986;SDS011;58897;51.960;5.582;2022-09-25T11:02:31;0.83;;;0.53;;
12986;SDS011;58897;51.960;5.582;2022-09-25T11:05:02;1.70;;;0.53;;
12986;SDS011;58897;51.960;5.582;2022-09-25T11:07:31;1.50;;;0.80;;
12986;SDS011;58897;51.960;5.582;2022-09-25T11:09:58;1.47;;;0.50;;
12986;SDS011;58897;51.960;5.582;2022-09-25T11:12:26;1.63;;;0.60;;
12986;SDS011;58897;51.960;5.582;2022-09-25T11:14:59;2.13;;;0.83;;
12986;SDS011;58897;51.960;5.582;2022-09-25T11:17:32;1.63;;;0.87;;
12986;SDS011;58897;51.960;5.582;2022-09-25T11:30:55;3.27;;;0.90;;
12986;SDS011;58897;51.960;5.582;2022-09-25T11:33:42;3.03;;;1.07;;
12986;SDS011;58897;51.960;5.582;2022-09-25T11:38:52;0.97;;;0.40;;
12986;SDS011;58897;51.960;5.582;2022-09-25T11:41:43;2.10;;;0.80;;
12986;SDS011;58897;51.960;5.582;2022-09-25T11:44:27;2.17;;;0.80;;
12986;SDS011;58897;51.960;5.582;2022-09-25T11:47:14;1.77;;;0.80;;
12986;SDS011;58897;51.960;5.582;2022-09-25T11:49:47;1.67;;;0.40;;
12986;SDS011;58897;51.960;5.582;2022-09-25T11:52:24;3.00;;;0.53;;
12986;SDS011;58897;51.960;5.582;2022-09-25T11:55:02;2.63;;;0.73;;
12986;SDS011;58897;51.960;5.582;2022-09-25T11:57:55;1.13;;;0.70;;
12986;SDS011;58897;51.960;5.582;2022-09-25T12:03:35;3.27;;;0.73;;
12986;SDS011;58897;51.960;5.582;2022-09-25T12:14:54;1.10;;;0.50;;
12986;SDS011;58897;51.960;5.582;2022-09-25T12:17:55;1.33;;;0.63;;
12986;SDS011;58897;51.960;5.582;2022-09-25T12:26:15;2.23;;;0.60;;
12986;SDS011;58897;51.960;5.582;2022-09-25T12:37:51;3.23;;;0.60;;
12986;SDS011;58897;51.960;5.582;2022-09-25T12:43:00;2.67;;;1.67;;
12986;SDS011;58897;51.960;5.582;2022-09-25T12:53:49;2.87;;;0.53;;
12986;SDS011;58897;51.960;5.582;2022-09-25T12:56:22;3.10;;;0.70;;
12986;SDS011;58897;51.960;5.582;2022-09-25T12:59:03;1.77;;;0.73;;
12986;SDS011;58897;51.960;5.582;2022-09-25T13:01:50;2.30;;;0.47;;
12986;SDS011;58897;51.960;5.582;2022-09-25T13:04:35;0.83;;;0.60;;
12986;SDS011;58897;51.960;5.582;2022-09-25T13:07:08;1.23;;;0.60;;
12986;SDS011;58897;51.960;5.582;2022-09-25T13:09:41;1.10;;;0.43;;
12986;SDS011;58897;51.960;5.582;2022-09-25T13:14:56;1.37;;;0.33;;
12986;SDS011;58897;51.960;5.582;2022-09-25T13:17:24;1.00;;;0.63;;
12986;SDS011;58897;51.960;5.582;2022-09-25T13:19:51;1.23;;;0.60;;
12986;SDS011;58897;51.960;5.582;2022-09-25T13:22:21;0.97;;;0.53;;
12986;SDS011;58897;51.960;5.582;2022-09-25T13:24:52;0.50;;;0.50;;
12986;SDS011;58897;51.960;5.582;2022-09-25T13:27:23;1.43;;;0.40;;
12986;SDS011;58897;51.960;5.582;2022-09-25T13:29:52;1.20;;;0.50;;
12986;SDS011;58897;51.960;5.582;2022-09-25T13:32:29;0.67;;;0.63;;
12986;SDS011;58897;51.960;5.582;2022-09-25T13:35:11;1.47;;;0.57;;
12986;SDS011;58897;51.960;5.582;2022-09-25T13:37:45;0.93;;;0.50;;
12986;SDS011;58897;51.960;5.582;2022-09-25T13:40:18;1.17;;;0.60;;
12986;SDS011;58897;51.960;5.582;2022-09-25T13:43:15;2.67;;;0.90;;
12986;SDS011;58897;51.960;5.582;2022-09-25T13:46:35;2.67;;;1.43;;
12986;SDS011;58897;51.960;5.582;2022-09-25T13:48:43;1.93;;;0.83;;
12986;SDS011;58897;51.960;5.582;2022-09-25T14:01:50;2.93;;;0.73;;
12986;SDS011;58897;51.960;5.582;2022-09-25T14:04:37;1.23;;;0.67;;
12986;SDS011;58897;51.960;5.582;2022-09-25T14:07:18;1.10;;;0.60;;
12986;SDS011;58897;51.960;5.582;2022-09-25T14:09:51;1.30;;;0.77;;
12986;SDS011;58897;51.960;5.582;2022-09-25T14:14:58;1.57;;;0.50;;
12986;SDS011;58897;51.960;5.582;2022-09-25T14:17:29;2.20;;;0.60;;
12986;SDS011;58897;51.960;5.582;2022-09-25T14:19:57;1.50;;;0.67;;
12986;SDS011;58897;51.960;5.582;2022-09-25T14:24:55;0.73;;;0.50;;
12986;SDS011;58897;51.960;5.582;2022-09-25T14:27:22;1.47;;;0.77;;
12986;SDS011;58897;51.960;5.582;2022-09-25T14:30:06;0.40;;;0.40;;
12986;SDS011;58897;51.960;5.582;2022-09-25T14:32:38;0.50;;;0.50;;
12986;SDS011;58897;51.960;5.582;2022-09-25T14:38:37;3.30;;;0.80;;
12986;SDS011;58897;51.960;5.582;2022-09-25T14:46:20;1.50;;;0.60;;
12986;SDS011;58897;51.960;5.582;2022-09-25T14:48:52;1.47;;;0.40;;
12986;SDS011;58897;51.960;5.582;2022-09-25T14:51:24;0.90;;;0.80;;
12986;SDS011;58897;51.960;5.582;2022-09-25T14:53:57;2.73;;;2.10;;
12986;SDS011;58897;51.960;5.582;2022-09-25T14:56:28;3.53;;;1.90;;
12986;SDS011;58897;51.960;5.582;2022-09-25T14:59:01;3.13;;;1.00;;
12986;SDS011;58897;51.960;5.582;2022-09-25T15:01:35;0.93;;;0.60;;
12986;SDS011;58897;51.960;5.582;2022-09-25T15:04:09;1.60;;;0.90;;
12986;SDS011;58897;51.960;5.582;2022-09-25T15:06:37;2.07;;;0.80;;
12986;SDS011;58897;51.960;5.582;2022-09-25T15:11:53;2.97;;;0.80;;
12986;SDS011;58897;51.960;5.582;2022-09-25T15:14:20;2.53;;;1.00;;
12986;SDS011;58897;51.960;5.582;2022-09-25T15:16:47;1.40;;;0.90;;
12986;SDS011;58897;51.960;5.582;2022-09-25T15:19:34;3.03;;;1.20;;
12986;SDS011;58897;51.960;5.582;2022-09-25T15:22:07;1.90;;;1.13;;
12986;SDS011;58897;51.960;5.582;2022-09-25T15:24:36;2.47;;;1.30;;
12986;SDS011;58897;51.960;5.582;2022-09-25T15:27:05;3.00;;;0.97;;
12986;SDS011;58897;51.960;5.582;2022-09-25T15:29:36;1.90;;;0.80;;
12986;SDS011;58897;51.960;5.582;2022-09-25T15:32:13;0.70;;;0.70;;
12986;SDS011;58897;51.960;5.582;2022-09-25T15:34:44;1.40;;;0.80;;
12986;SDS011;58897;51.960;5.582;2022-09-25T15:37:19;2.50;;;1.40;;
12986;SDS011;58897;51.960;5.582;2022-09-25T15:39:52;6.80;;;6.17;;
12986;SDS011;58897;51.960;5.582;2022-09-25T15:42:19;10.30;;;8.60;;
12986;SDS011;58897;51.960;5.582;2022-09-25T15:44:48;3.20;;;2.47;;
12986;SDS011;58897;51.960;5.582;2022-09-25T15:50:00;1.57;;;0.80;;
12986;SDS011;58897;51.960;5.582;2022-09-25T15:52:31;1.63;;;0.90;;
12986;SDS011;58897;51.960;5.582;2022-09-25T15:54:59;2.50;;;1.00;;
12986;SDS011;58897;51.960;5.582;2022-09-25T15:57:28;1.67;;;0.73;;
12986;SDS011;58897;51.960;5.582;2022-09-25T15:59:56;1.10;;;0.77;;
12986;SDS011;58897;51.960;5.582;2022-09-25T16:02:56;1.43;;;0.87;;
12986;SDS011;58897;51.960;5.582;2022-09-25T16:05:45;1.93;;;1.13;;
12986;SDS011;58897;51.960;5.582;2022-09-25T16:11:01;1.90;;;0.80;;
12986;SDS011;58897;51.960;5.582;2022-09-25T16:13:33;2.00;;;0.77;;
12986;SDS011;58897;51.960;5.582;2022-09-25T16:16:03;1.10;;;0.70;;
12986;SDS011;58897;51.960;5.582;2022-09-25T16:18:41;2.53;;;1.13;;
12986;SDS011;58897;51.960;5.582;2022-09-25T16:21:11;0.70;;;0.70;;
12986;SDS011;58897;51.960;5.582;2022-09-25T16:23:43;1.10;;;0.90;;
12986;SDS011;58897;51.960;5.582;2022-09-25T16:26:22;1.23;;;0.77;;
12986;SDS011;58897;51.960;5.582;2022-09-25T16:28:55;1.07;;;0.80;;
12986;SDS011;58897;51.960;5.582;2022-09-25T16:31:30;2.43;;;0.73;;
12986;SDS011;58897;51.960;5.582;2022-09-25T16:33:58;1.97;;;0.80;;
12986;SDS011;58897;51.960;5.582;2022-09-25T16:36:26;1.20;;;1.00;;
12986;SDS011;58897;51.960;5.582;2022-09-25T16:41:46;3.57;;;1.10;;
12986;SDS011;58897;51.960;5.582;2022-09-25T16:44:17;4.50;;;1.33;;
12986;SDS011;58897;51.960;5.582;2022-09-25T16:49:17;2.33;;;0.90;;
12986;SDS011;58897;51.960;5.582;2022-09-25T16:51:47;4.97;;;1.57;;
12986;SDS011;58897;51.960;5.582;2022-09-25T16:54:16;3.23;;;1.17;;
12986;SDS011;58897;51.960;5.582;2022-09-25T16:56:44;1.83;;;0.90;;
12986;SDS011;58897;51.960;5.582;2022-09-25T16:59:20;2.03;;;1.03;;
12986;SDS011;58897;51.960;5.582;2022-09-25T17:01:49;1.30;;;0.80;;
12986;SDS011;58897;51.960;5.582;2022-09-25T17:04:22;3.30;;;1.03;;
12986;SDS011;58897;51.960;5.582;2022-09-25T17:06:52;1.40;;;1.10;;
12986;SDS011;58897;51.960;5.582;2022-09-25T17:09:24;1.77;;;1.23;;
12986;SDS011;58897;51.960;5.582;2022-09-25T17:11:56;3.27;;;1.30;;
12986;SDS011;58897;51.960;5.582;2022-09-25T17:14:25;1.67;;;1.30;;
12986;SDS011;58897;51.960;5.582;2022-09-25T17:16:54;1.07;;;0.90;;
12986;SDS011;58897;51.960;5.582;2022-09-25T17:19:21;3.03;;;1.40;;
12986;SDS011;58897;51.960;5.582;2022-09-25T17:21:50;3.50;;;1.30;;
12986;SDS011;58897;51.960;5.582;2022-09-25T17:24:18;1.67;;;1.40;;
12986;SDS011;58897;51.960;5.582;2022-09-25T17:26:49;3.00;;;1.47;;
12986;SDS011;58897;51.960;5.582;2022-09-25T17:29:17;3.63;;;1.50;;
12986;SDS011;58897;51.960;5.582;2022-09-25T17:31:44;2.77;;;1.13;;
12986;SDS011;58897;51.960;5.582;2022-09-25T17:34:15;2.00;;;1.40;;
12986;SDS011;58897;51.960;5.582;2022-09-25T17:36:43;1.60;;;0.90;;
12986;SDS011;58897;51.960;5.582;2022-09-25T17:39:10;2.37;;;0.97;;
12986;SDS011;58897;51.960;5.582;2022-09-25T17:41:37;2.17;;;1.00;;
12986;SDS011;58897;51.960;5.582;2022-09-25T17:44:16;3.53;;;1.20;;
12986;SDS011;58897;51.960;5.582;2022-09-25T17:46:44;1.17;;;0.90;;
12986;SDS011;58897;51.960;5.582;2022-09-25T17:49:11;4.50;;;1.33;;